createdAt,value
2022-08-10T00:01:52.876Z,17.50
2022-08-10T00:04:23.093Z,17.60
2022-08-10T00:06:53.133Z,17.60
2022-08-10T00:09:21.921Z,17.40
2022-08-10T00:11:50.623Z,17.30
2022-08-10T00:14:19.390Z,17.40
2022-08-10T00:16:49.465Z,17.40
2022-08-10T00:19:18.439Z,17.30
2022-08-10T00:21:48.225Z,17.30
2022-08-10T00:24:16.751Z,17.20
2022-08-10T00:28:02.324Z,17.20
2022-08-10T00:29:34.467Z,17.10
2022-08-10T00:32:04.682Z,17.10
2022-08-10T00:34:34.567Z,17.10
2022-08-10T00:37:03.188Z,17.00
2022-08-10T00:39:36.127Z,17.00
2022-08-10T00:42:08.138Z,16.90
2022-08-10T00:44:39.903Z,16.90
2022-08-10T00:47:36.479Z,16.90
2022-08-10T00:49:59.632Z,16.80
2022-08-10T00:52:30.739Z,16.90
2022-08-10T00:55:00.176Z,16.80
2022-08-10T00:57:29.391Z,16.70
2022-08-10T01:00:00.144Z,16.70
2022-08-10T01:02:33.283Z,16.70
2022-08-10T01:05:05.011Z,16.70
2022-08-10T01:07:49.839Z,16.70
2022-08-10T01:10:30.454Z,16.60
2022-08-10T01:13:08.137Z,16.60
2022-08-10T01:15:52.315Z,16.60
2022-08-10T01:18:29.559Z,16.60
2022-08-10T01:21:38.852Z,16.50
2022-08-10T01:24:36.603Z,16.50
2022-08-10T01:27:27.026Z,16.50
2022-08-10T01:30:00.819Z,16.50
2022-08-10T01:32:43.881Z,16.40
2022-08-10T01:35:18.009Z,16.40
2022-08-10T01:37:53.053Z,16.30
2022-08-10T01:40:26.125Z,16.30
2022-08-10T01:42:59.535Z,16.20
2022-08-10T01:45:44.785Z,16.00
2022-08-10T01:48:28.319Z,16.10
2022-08-10T01:51:11.368Z,16.10
2022-08-10T01:53:43.869Z,16.10
2022-08-10T01:56:14.956Z,16.00
2022-08-10T01:58:45.260Z,16.00
2022-08-10T02:01:18.456Z,16.00
2022-08-10T02:04:04.269Z,15.90
2022-08-10T02:06:39.453Z,15.90
2022-08-10T02:09:09.959Z,15.90
2022-08-10T02:12:06.964Z,15.80
2022-08-10T02:14:34.587Z,15.80
2022-08-10T02:17:08.733Z,15.80
2022-08-10T02:19:39.892Z,15.80
2022-08-10T02:22:36.500Z,15.70
2022-08-10T02:25:01.316Z,15.70
2022-08-10T02:27:32.073Z,15.70
2022-08-10T02:30:03.632Z,15.70
2022-08-10T02:32:37.893Z,15.70
2022-08-10T02:35:22.467Z,15.70
2022-08-10T02:37:54.095Z,15.60
2022-08-10T02:45:13.076Z,15.60
2022-08-10T02:45:23.253Z,15.60
2022-08-10T02:46:20.955Z,15.60
2022-08-10T02:48:57.877Z,15.50
2022-08-10T02:52:07.570Z,15.50
2022-08-10T02:54:25.197Z,15.50
2022-08-10T02:56:58.063Z,15.40
2022-08-10T02:59:40.013Z,15.40
2022-08-10T03:02:13.087Z,15.40
2022-08-10T03:04:56.161Z,15.30
2022-08-10T03:07:43.173Z,15.30
2022-08-10T03:10:18.416Z,15.40
2022-08-10T03:12:50.888Z,15.30
2022-08-10T03:15:21.505Z,15.30
2022-08-10T03:17:57.389Z,15.30
2022-08-10T03:20:39.499Z,15.30
2022-08-10T03:23:13.896Z,15.20
2022-08-10T03:25:53.297Z,15.30
2022-08-10T03:28:24.547Z,15.30
2022-08-10T03:30:53.861Z,15.20
2022-08-10T03:33:23.309Z,15.20
2022-08-10T03:36:41.908Z,15.20
2022-08-10T03:38:44.460Z,15.20
2022-08-10T03:41:16.701Z,15.30
2022-08-10T03:43:47.837Z,15.20
2022-08-10T03:46:19.994Z,15.20
2022-08-10T03:48:53.376Z,15.30
2022-08-10T03:51:24.919Z,15.10
2022-08-10T03:54:03.703Z,15.10
2022-08-10T03:56:37.134Z,15.20
2022-08-10T03:59:07.099Z,15.10
2022-08-10T04:02:46.225Z,15.10
2022-08-10T04:04:38.478Z,15.10
2022-08-10T04:07:09.156Z,15.10
2022-08-10T04:09:53.310Z,15.10
2022-08-10T04:12:25.072Z,15.10
2022-08-10T04:14:53.981Z,15.10
2022-08-10T04:17:57.459Z,15.10
2022-08-10T04:20:18.462Z,15.10
2022-08-10T04:22:51.796Z,15.10
2022-08-10T04:25:22.106Z,15.10
2022-08-10T04:27:51.608Z,15.00
2022-08-10T04:30:20.496Z,15.00
2022-08-10T04:32:54.192Z,15.00
2022-08-10T04:35:24.948Z,15.00
2022-08-10T04:37:56.795Z,15.00
2022-08-10T04:40:29.649Z,14.90
2022-08-10T04:43:04.542Z,14.90
2022-08-10T04:45:48.972Z,14.90
2022-08-10T04:48:42.271Z,14.90
2022-08-10T04:51:16.804Z,14.90
2022-08-10T04:54:02.877Z,14.90
2022-08-10T04:56:35.806Z,14.80
2022-08-10T04:59:05.726Z,14.90
2022-08-10T05:02:29.844Z,14.90
2022-08-10T05:04:33.794Z,14.90
2022-08-10T05:07:16.784Z,15.00
2022-08-10T05:10:01.305Z,15.00
2022-08-10T05:12:36.736Z,15.00
2022-08-10T05:15:08.203Z,15.10
2022-08-10T05:17:37.149Z,15.10
2022-08-10T05:20:07.804Z,15.20
2022-08-10T05:22:38.101Z,15.20
2022-08-10T05:25:10.411Z,15.20
2022-08-10T05:27:39.286Z,15.30
2022-08-10T05:30:09.421Z,15.30
2022-08-10T05:32:57.873Z,15.40
2022-08-10T05:35:28.085Z,15.40
2022-08-10T05:38:11.508Z,15.50
2022-08-10T05:40:47.121Z,15.50
2022-08-10T05:43:18.104Z,15.60
2022-08-10T05:46:18.285Z,15.60
2022-08-10T05:48:54.602Z,15.70
2022-08-10T05:51:25.377Z,15.80
2022-08-10T05:54:02.863Z,15.90
2022-08-10T05:56:54.279Z,15.90
2022-08-10T06:00:29.305Z,16.00
2022-08-10T06:02:33.349Z,16.10
2022-08-10T06:05:09.706Z,16.20
2022-08-10T06:07:45.705Z,16.30
2022-08-10T06:10:30.973Z,16.40
2022-08-10T06:13:30.256Z,16.60
2022-08-10T06:16:06.719Z,16.70
2022-08-10T06:18:36.605Z,16.80
2022-08-10T06:21:06.309Z,16.90
2022-08-10T06:23:35.713Z,17.00
2022-08-10T06:26:09.016Z,17.10
2022-08-10T06:28:52.996Z,17.30
2022-08-10T06:31:47.465Z,17.40
2022-08-10T06:34:21.138Z,17.50
2022-08-10T06:36:50.787Z,17.60
2022-08-10T06:39:36.082Z,17.80
2022-08-10T06:42:16.513Z,17.90
2022-08-10T06:44:53.459Z,18.00
2022-08-10T06:47:26.478Z,18.20
2022-08-10T06:50:01.500Z,18.30
2022-08-10T06:52:33.690Z,18.40
2022-08-10T06:55:05.492Z,18.50
2022-08-10T06:57:38.610Z,18.60
2022-08-10T07:00:10.954Z,18.70
2022-08-10T07:02:46.028Z,18.90
2022-08-10T07:05:19.942Z,19.00
2022-08-10T07:07:50.887Z,19.10
2022-08-10T07:10:21.677Z,19.30
2022-08-10T07:12:52.128Z,19.40
2022-08-10T07:15:23.360Z,19.50
2022-08-10T07:18:13.384Z,19.70
2022-08-10T07:20:43.172Z,19.80
2022-08-10T07:23:57.526Z,19.90
2022-08-10T07:26:03.910Z,20.00
2022-08-10T07:28:34.812Z,20.20
2022-08-10T07:31:04.934Z,20.40
2022-08-10T07:33:55.453Z,20.50
2022-08-10T07:36:26.363Z,20.80
2022-08-10T07:38:56.886Z,21.20
2022-08-10T07:41:30.664Z,21.30
2022-08-10T07:44:02.994Z,21.50
2022-08-10T07:46:36.235Z,21.70
2022-08-10T07:49:18.025Z,21.90
2022-08-10T07:51:54.880Z,22.10
2022-08-10T07:54:26.284Z,22.30
2022-08-10T07:57:00.764Z,22.40
2022-08-10T07:59:36.936Z,22.50
2022-08-10T08:02:14.514Z,22.60
2022-08-10T08:04:44.402Z,22.70
2022-08-10T08:07:17.322Z,22.80
2022-08-10T08:09:58.143Z,22.80
2022-08-10T08:12:33.621Z,22.80
2022-08-10T08:16:15.718Z,23.00
2022-08-10T08:18:00.568Z,23.10
2022-08-10T08:20:30.128Z,23.30
2022-08-10T08:24:05.431Z,23.40
2022-08-10T08:25:49.413Z,23.50
2022-08-10T08:28:18.809Z,23.60
2022-08-10T08:30:49.097Z,23.70
2022-08-10T08:33:42.173Z,23.90
2022-08-10T08:36:10.068Z,24.10
2022-08-10T08:38:39.296Z,24.20
2022-08-10T08:41:22.115Z,24.40
2022-08-10T08:43:57.328Z,24.50
2022-08-10T08:46:59.293Z,24.80
2022-08-10T08:50:09.117Z,24.90
2022-08-10T08:52:53.627Z,25.10
2022-08-10T08:56:03.885Z,25.20
2022-08-10T08:58:37.023Z,25.30
2022-08-10T09:01:19.998Z,25.50
2022-08-10T09:04:21.123Z,25.50
2022-08-10T09:08:00.671Z,25.70
2022-08-10T09:10:37.198Z,25.90
2022-08-10T09:13:15.004Z,26.00
2022-08-10T09:15:51.644Z,26.20
2022-08-10T09:18:25.146Z,26.40
2022-08-10T09:21:00.128Z,26.70
2022-08-10T09:24:04.973Z,26.80
2022-08-10T09:26:32.504Z,27.10
2022-08-10T09:29:12.852Z,27.20
2022-08-10T09:33:05.590Z,27.30
2022-08-10T09:36:24.246Z,27.40
2022-08-10T09:38:02.553Z,27.50
2022-08-10T09:41:01.160Z,27.70
2022-08-10T09:43:41.031Z,27.80
2022-08-10T09:46:21.477Z,27.90
2022-08-10T09:49:03.961Z,28.10
2022-08-10T09:51:46.627Z,28.10
2022-08-10T09:54:28.132Z,28.30
2022-08-10T09:57:44.467Z,28.30
2022-08-10T10:00:09.598Z,28.50
2022-08-10T10:02:52.338Z,28.50
2022-08-10T10:05:38.100Z,28.60
2022-08-10T10:08:13.207Z,28.70
2022-08-10T10:10:48.878Z,28.80
2022-08-10T10:13:44.732Z,28.90
2022-08-10T10:16:28.904Z,29.00
2022-08-10T10:19:08.770Z,29.20
2022-08-10T10:21:54.463Z,29.30
2022-08-10T10:24:34.392Z,29.40
2022-08-10T10:27:16.701Z,29.60
2022-08-10T10:30:04.450Z,29.70
2022-08-10T10:32:45.860Z,29.90
2022-08-10T10:35:23.418Z,30.00
2022-08-10T10:38:00.891Z,30.10
2022-08-10T10:40:41.254Z,30.30
2022-08-10T10:43:21.569Z,30.30
2022-08-10T10:46:04.442Z,30.50
2022-08-10T10:48:41.240Z,30.50
2022-08-10T10:51:16.092Z,30.70
2022-08-10T10:53:50.712Z,30.70
2022-08-10T10:56:28.651Z,30.80
2022-08-10T10:59:53.879Z,31.00
2022-08-10T11:02:19.911Z,31.10
2022-08-10T11:04:58.997Z,31.20
2022-08-10T11:07:35.497Z,31.30
2022-08-10T11:10:31.530Z,31.40
2022-08-10T11:14:27.237Z,31.40
2022-08-10T11:16:12.065Z,31.50
2022-08-10T11:18:59.031Z,31.60
2022-08-10T11:21:44.705Z,31.70
2022-08-10T11:24:42.701Z,31.80
2022-08-10T11:27:21.825Z,31.90
2022-08-10T11:30:01.553Z,32.00
2022-08-10T11:32:38.106Z,32.00
2022-08-10T11:35:18.600Z,32.10
2022-08-10T11:38:31.468Z,32.20
2022-08-10T11:40:52.210Z,32.20
2022-08-10T11:43:27.044Z,32.20
2022-08-10T11:46:08.094Z,32.20
2022-08-10T11:48:53.558Z,32.30
2022-08-10T11:51:31.628Z,32.50
2022-08-10T11:54:09.985Z,32.80
2022-08-10T11:56:47.982Z,32.90
2022-08-10T11:59:35.892Z,33.10
2022-08-10T12:02:06.088Z,33.30
2022-08-10T12:04:35.458Z,33.50
2022-08-10T12:08:54.555Z,33.50
2022-08-10T12:10:09.788Z,33.70
2022-08-10T12:12:46.780Z,34.00
2022-08-10T12:15:22.468Z,34.10
2022-08-10T12:17:55.876Z,34.20
2022-08-10T12:20:32.354Z,34.30
2022-08-10T12:23:09.332Z,34.50
2022-08-10T12:25:56.952Z,34.60
2022-08-10T12:28:51.303Z,34.70
2022-08-10T12:31:27.833Z,34.80
2022-08-10T12:34:15.124Z,34.90
2022-08-10T12:36:49.078Z,35.10
2022-08-10T12:39:26.034Z,35.30
2022-08-10T12:42:03.240Z,35.40
2022-08-10T12:44:41.965Z,35.60
2022-08-10T12:47:21.761Z,35.50
2022-08-10T12:50:17.204Z,35.60
2022-08-10T12:52:56.357Z,35.70
2022-08-10T12:55:28.656Z,35.80
2022-08-10T12:57:58.382Z,35.90
2022-08-10T13:00:33.432Z,36.00
2022-08-10T13:03:02.731Z,36.10
2022-08-10T13:06:02.605Z,36.20
2022-08-10T13:08:40.672Z,36.30
2022-08-10T13:11:19.197Z,36.50
2022-08-10T13:14:09.833Z,36.50
2022-08-10T13:16:39.808Z,36.50
2022-08-10T13:19:11.168Z,36.60
2022-08-10T13:21:41.038Z,36.60
2022-08-10T13:24:12.935Z,36.70
2022-08-10T13:26:49.512Z,36.80
2022-08-10T13:29:42.023Z,36.90
2022-08-10T13:32:12.180Z,37.00
2022-08-10T13:34:46.911Z,37.10
2022-08-10T13:37:17.929Z,37.20
2022-08-10T13:39:59.208Z,37.30
2022-08-10T13:42:35.182Z,37.40
2022-08-10T13:45:09.328Z,37.40
2022-08-10T13:47:48.721Z,37.40
2022-08-10T13:50:33.118Z,37.40
2022-08-10T13:53:11.445Z,37.40
2022-08-10T13:55:54.234Z,37.40
2022-08-10T13:58:31.505Z,37.40
2022-08-10T14:01:02.687Z,37.30
2022-08-10T14:03:37.468Z,37.40
2022-08-10T14:06:08.506Z,37.40
2022-08-10T14:08:39.168Z,37.40
2022-08-10T14:11:14.104Z,37.40
2022-08-10T14:13:46.451Z,37.40
2022-08-10T14:16:16.501Z,37.40
2022-08-10T14:18:46.046Z,37.70
2022-08-10T14:21:15.777Z,37.60
2022-08-10T14:23:52.153Z,37.70
2022-08-10T14:26:26.149Z,37.80
2022-08-10T14:29:02.510Z,38.00
2022-08-10T14:31:34.382Z,38.10
2022-08-10T14:34:08.554Z,38.00
2022-08-10T14:36:43.224Z,37.90
2022-08-10T14:39:20.584Z,37.70
2022-08-10T14:42:03.156Z,37.50
2022-08-10T14:44:48.101Z,37.20
2022-08-10T14:47:52.840Z,37.00
2022-08-10T14:50:09.769Z,36.90
2022-08-10T14:52:44.322Z,36.80
2022-08-10T14:55:19.322Z,36.80
2022-08-10T14:58:18.853Z,36.70
2022-08-10T15:00:43.196Z,36.60
2022-08-10T15:04:00.586Z,36.40
2022-08-10T15:06:17.137Z,36.20
2022-08-10T15:08:48.059Z,35.90
2022-08-10T15:12:13.534Z,35.70
2022-08-10T15:14:15.212Z,35.50
2022-08-10T15:17:00.242Z,35.30
2022-08-10T15:20:04.476Z,35.10
2022-08-10T15:22:47.180Z,35.00
2022-08-10T15:25:19.623Z,34.90
2022-08-10T15:27:57.845Z,34.70
2022-08-10T15:30:40.496Z,34.40
2022-08-10T15:34:02.268Z,34.10
2022-08-10T15:36:41.887Z,33.80
2022-08-10T15:39:47.760Z,33.50
2022-08-10T15:42:08.341Z,33.30
2022-08-10T15:44:40.281Z,33.10
2022-08-10T15:47:15.206Z,32.90
2022-08-10T15:49:52.997Z,32.70
2022-08-10T15:52:39.948Z,32.60
2022-08-10T15:55:42.527Z,32.60
2022-08-10T15:58:19.525Z,32.50
2022-08-10T16:00:56.064Z,32.50
2022-08-10T16:03:39.250Z,32.50
2022-08-10T16:06:12.740Z,32.60
2022-08-10T16:08:56.441Z,32.60
2022-08-10T16:11:38.170Z,32.80
2022-08-10T16:14:14.309Z,33.00
2022-08-10T16:16:48.166Z,33.30
2022-08-10T16:19:23.798Z,33.30
2022-08-10T16:21:58.472Z,33.40
2022-08-10T16:24:32.143Z,33.50
2022-08-10T16:27:06.375Z,33.60
2022-08-10T16:29:56.436Z,33.60
2022-08-10T16:32:27.385Z,33.60
2022-08-10T16:34:57.408Z,33.50
2022-08-10T16:37:56.609Z,33.50
2022-08-10T16:40:26.388Z,33.50
2022-08-10T16:42:56.518Z,33.50
2022-08-10T16:45:32.381Z,33.60
2022-08-10T16:48:01.571Z,33.60
2022-08-10T16:50:32.406Z,33.60
2022-08-10T16:53:06.115Z,33.40
2022-08-10T16:55:49.808Z,33.30
2022-08-10T16:58:27.302Z,33.10
2022-08-10T17:01:02.643Z,32.90
2022-08-10T17:04:07.620Z,32.80
2022-08-10T17:06:28.997Z,32.60
2022-08-10T17:09:02.388Z,32.40
2022-08-10T17:11:33.385Z,32.20
2022-08-10T17:14:04.180Z,32.10
2022-08-10T17:16:36.983Z,31.90
2022-08-10T17:19:12.886Z,31.70
2022-08-10T17:21:51.818Z,31.50
2022-08-10T17:24:27.488Z,31.30
2022-08-10T17:26:58.392Z,31.20
2022-08-10T17:29:58.794Z,31.10
2022-08-10T17:32:28.559Z,30.90
2022-08-10T17:35:00.963Z,30.70
2022-08-10T17:37:34.096Z,30.60
2022-08-10T17:40:08.075Z,30.50
2022-08-10T17:42:39.362Z,30.30
2022-08-10T17:45:20.739Z,30.20
2022-08-10T17:48:08.073Z,30.10
2022-08-10T17:50:38.915Z,29.90
2022-08-10T17:53:15.274Z,29.80
2022-08-10T17:55:49.258Z,29.70
2022-08-10T17:58:20.193Z,29.60
2022-08-10T18:00:51.538Z,29.50
2022-08-10T18:03:25.759Z,29.40
2022-08-10T18:05:56.843Z,29.30
2022-08-10T18:08:28.680Z,29.10
2022-08-10T18:11:00.664Z,29.10
2022-08-10T18:13:55.374Z,28.90
2022-08-10T18:16:25.839Z,28.70
2022-08-10T18:19:00.749Z,28.50
2022-08-10T18:21:32.087Z,28.50
2022-08-10T18:24:05.936Z,28.40
2022-08-10T18:26:38.083Z,28.20
2022-08-10T18:29:11.400Z,28.10
2022-08-10T18:31:44.335Z,28.00
2022-08-10T18:34:18.155Z,27.80
2022-08-10T18:36:49.479Z,27.70
2022-08-10T18:39:34.702Z,27.50
2022-08-10T18:42:11.202Z,27.40
2022-08-10T18:44:44.654Z,27.20
2022-08-10T18:47:17.329Z,27.10
2022-08-10T18:49:59.733Z,27.00
2022-08-10T18:52:32.401Z,26.80
2022-08-10T18:55:14.193Z,26.70
2022-08-10T18:58:05.801Z,26.60
2022-08-10T19:00:42.210Z,26.50
2022-08-10T19:03:53.817Z,26.30
2022-08-10T19:06:50.451Z,26.20
2022-08-10T19:09:47.368Z,26.00
2022-08-10T19:12:33.001Z,25.90
2022-08-10T19:15:15.227Z,25.90
2022-08-10T19:18:02.915Z,25.70
2022-08-10T19:20:40.735Z,25.60
2022-08-10T19:23:26.853Z,25.50
2022-08-10T19:26:17.165Z,25.40
2022-08-10T19:29:05.725Z,25.30
2022-08-10T19:31:45.123Z,25.10
2022-08-10T19:34:29.699Z,25.00
2022-08-10T19:37:08.384Z,24.90
2022-08-10T19:39:51.392Z,24.80
2022-08-10T19:42:31.437Z,24.80
2022-08-10T19:45:59.142Z,24.60
2022-08-10T19:48:12.229Z,24.50
2022-08-10T19:50:49.490Z,24.40
2022-08-10T19:53:26.060Z,24.40
2022-08-10T19:56:24.345Z,24.30
2022-08-10T19:58:59.373Z,24.20
2022-08-10T20:01:28.026Z,24.10
2022-08-10T20:04:31.658Z,24.00
2022-08-10T20:07:11.176Z,23.90
2022-08-10T20:09:47.174Z,23.80
2022-08-10T20:12:31.311Z,23.80
2022-08-10T20:15:04.602Z,23.60
2022-08-10T20:17:51.557Z,23.50
2022-08-10T20:20:31.203Z,23.50
2022-08-10T20:23:09.378Z,23.40
2022-08-10T20:25:39.559Z,23.30
2022-08-10T20:28:18.306Z,23.20
2022-08-10T20:30:52.515Z,23.10
2022-08-10T20:33:28.322Z,23.00
2022-08-10T20:36:03.662Z,22.90
2022-08-10T20:38:39.515Z,22.80
2022-08-10T20:41:18.189Z,22.70
2022-08-10T20:44:01.454Z,22.60
2022-08-10T20:46:36.569Z,22.40
2022-08-10T20:49:16.908Z,22.40
2022-08-10T20:51:58.609Z,22.30
2022-08-10T20:54:33.868Z,22.20
2022-08-10T20:57:55.282Z,22.10
2022-08-10T21:00:12.872Z,22.00
2022-08-10T21:02:57.941Z,22.00
2022-08-10T21:05:34.495Z,21.90
2022-08-10T21:08:15.855Z,21.80
2022-08-10T21:11:02.659Z,21.80
2022-08-10T21:13:46.452Z,21.70
2022-08-10T21:16:29.036Z,21.60
2022-08-10T21:19:21.202Z,21.50
2022-08-10T21:22:04.479Z,21.40
2022-08-10T21:24:45.648Z,21.40
2022-08-10T21:27:28.032Z,21.20
2022-08-10T21:30:09.164Z,21.20
2022-08-10T21:32:48.149Z,21.10
2022-08-10T21:35:36.748Z,21.10
2022-08-10T21:38:19.517Z,21.00
2022-08-10T21:41:57.860Z,21.00
2022-08-10T21:44:42.697Z,20.90
2022-08-10T21:48:06.655Z,20.80
2022-08-10T21:50:57.697Z,20.80
2022-08-10T21:53:47.772Z,20.70
2022-08-10T21:56:41.035Z,20.80
2022-08-10T21:59:34.898Z,20.70
2022-08-10T22:02:28.245Z,20.70
2022-08-10T22:05:18.764Z,20.70
2022-08-10T22:08:12.095Z,20.70
2022-08-10T22:11:02.745Z,20.70
2022-08-10T22:13:52.573Z,20.50
2022-08-10T22:16:49.367Z,20.60
2022-08-10T22:19:37.756Z,20.60
2022-08-10T22:22:28.516Z,20.50
2022-08-10T22:25:43.190Z,20.50
2022-08-10T22:28:33.896Z,20.40
2022-08-10T22:31:43.213Z,20.30
2022-08-10T22:35:02.644Z,20.30
2022-08-10T22:37:59.528Z,20.20
2022-08-10T22:40:54.432Z,20.30
2022-08-10T22:43:44.822Z,20.20
2022-08-10T22:46:36.471Z,20.10
2022-08-10T22:49:04.737Z,20.00
2022-08-10T22:51:48.350Z,20.00
2022-08-10T22:54:40.143Z,19.90
2022-08-10T22:57:32.155Z,19.90
2022-08-10T23:00:10.035Z,19.80
2022-08-10T23:02:40.145Z,19.80
2022-08-10T23:05:12.487Z,19.80
2022-08-10T23:07:48.115Z,19.60
2022-08-10T23:10:19.730Z,19.60
2022-08-10T23:12:51.700Z,19.50
2022-08-10T23:15:43.811Z,19.50
2022-08-10T23:18:36.963Z,19.50
2022-08-10T23:21:12.248Z,19.40
2022-08-10T23:23:43.185Z,19.40
2022-08-10T23:26:13.995Z,19.40
2022-08-10T23:28:58.439Z,19.40
2022-08-10T23:31:58.241Z,19.30
2022-08-10T23:34:23.700Z,19.20
2022-08-10T23:36:53.927Z,19.20
2022-08-10T23:39:30.924Z,19.10
2022-08-10T23:42:07.486Z,19.10
2022-08-10T23:44:39.083Z,19.00
2022-08-10T23:47:08.789Z,19.00
2022-08-10T23:49:39.911Z,18.90
2022-08-10T23:52:12.279Z,18.80
2022-08-10T23:54:48.442Z,18.80
2022-08-10T23:57:19.684Z,18.70
2022-08-10T23:59:59.043Z,18.70
